createdAt,value
2022-12-18T00:00:49.576Z,102316.63
2022-12-18T00:03:19.553Z,102315.81
2022-12-18T00:05:52.504Z,102321.91
2022-12-18T00:08:23.223Z,102325.56
2022-12-18T00:10:55.293Z,102313.44
2022-12-18T00:13:31.203Z,102317.00
2022-12-18T00:16:05.950Z,102322.25
2022-12-18T00:18:36.575Z,102335.47
2022-12-18T00:21:08.993Z,102340.91
2022-12-18T00:23:40.308Z,102347.13
2022-12-18T00:26:22.642Z,102348.84
2022-12-18T00:28:56.596Z,102346.03
2022-12-18T00:31:28.081Z,102342.75
2022-12-18T00:33:58.787Z,102347.13
2022-12-18T00:36:31.621Z,102345.59
2022-12-18T00:39:02.351Z,102334.31
2022-12-18T00:41:47.134Z,102338.53
2022-12-18T00:44:18.803Z,102339.25
2022-12-18T00:46:50.076Z,102334.25
2022-12-18T00:49:20.536Z,102344.97
2022-12-18T00:51:51.206Z,102346.63
2022-12-18T00:54:21.542Z,102353.78
2022-12-18T00:56:53.618Z,102355.63
2022-12-18T00:59:23.495Z,102354.72
2022-12-18T01:01:54.075Z,102354.75
2022-12-18T01:04:23.706Z,102358.34
2022-12-18T01:06:53.672Z,102351.31
2022-12-18T01:09:23.302Z,102347.78
2022-12-18T01:11:57.604Z,102344.38
2022-12-18T01:14:27.316Z,102341.53
2022-12-18T01:16:56.824Z,102344.44
2022-12-18T01:19:27.247Z,102350.31
2022-12-18T01:21:57.884Z,102351.22
2022-12-18T01:24:27.515Z,102352.97
2022-12-18T01:26:59.630Z,102353.03
2022-12-18T01:29:29.163Z,102346.03
2022-12-18T01:31:59.202Z,102353.94
2022-12-18T01:34:28.821Z,102357.47
2022-12-18T01:36:58.459Z,102354.97
2022-12-18T01:39:28.103Z,102352.94
2022-12-18T01:42:06.472Z,102346.94
2022-12-18T01:45:04.452Z,102360.19
2022-12-18T01:47:38.764Z,102359.28
2022-12-18T01:50:14.013Z,102359.28
2022-12-18T01:52:46.482Z,102364.69
2022-12-18T01:55:18.793Z,102361.22
2022-12-18T01:57:53.224Z,102355.94
2022-12-18T02:00:24.901Z,102368.34
2022-12-18T02:02:55.483Z,102363.00
2022-12-18T02:05:32.863Z,102371.88
2022-12-18T02:08:11.504Z,102369.97
2022-12-18T02:10:50.362Z,102385.84
2022-12-18T02:13:33.789Z,102379.88
2022-12-18T02:16:11.668Z,102382.59
2022-12-18T02:18:48.975Z,102380.06
2022-12-18T02:21:31.375Z,102375.56
2022-12-18T02:24:15.194Z,102378.22
2022-12-18T02:26:52.644Z,102367.81
2022-12-18T02:29:28.525Z,102372.22
2022-12-18T02:32:01.413Z,102368.63
2022-12-18T02:34:33.480Z,102372.31
2022-12-18T02:37:07.787Z,102368.00
2022-12-18T02:39:40.194Z,102359.31
2022-12-18T02:42:13.527Z,102354.97
2022-12-18T02:44:48.313Z,102363.78
2022-12-18T02:47:24.193Z,102350.56
2022-12-18T02:50:01.841Z,102354.97
2022-12-18T02:52:42.713Z,102349.72
2022-12-18T02:55:29.896Z,102349.88
2022-12-18T02:58:14.690Z,102351.50
2022-12-18T03:00:52.145Z,102356.56
2022-12-18T03:03:27.545Z,102362.81
2022-12-18T03:06:02.525Z,102356.75
2022-12-18T03:08:35.944Z,102358.56
2022-12-18T03:11:08.435Z,102344.47
2022-12-18T03:13:44.051Z,102341.88
2022-12-18T03:16:20.818Z,102349.69
2022-12-18T03:18:53.167Z,102342.66
2022-12-18T03:21:28.107Z,102341.88
2022-12-18T03:23:59.287Z,102340.16
2022-12-18T03:26:31.518Z,102333.84
2022-12-18T03:29:11.216Z,102339.09
2022-12-18T03:31:43.827Z,102340.53
2022-12-18T03:34:18.384Z,102333.94
2022-12-18T03:36:49.896Z,102337.41
2022-12-18T03:39:19.567Z,102348.09
2022-12-18T03:42:05.299Z,102348.41
2022-12-18T03:44:56.057Z,102361.50
2022-12-18T03:47:32.068Z,102352.88
2022-12-18T03:50:15.794Z,102340.41
2022-12-18T03:52:53.754Z,102347.53
2022-12-18T03:55:25.549Z,102350.06
2022-12-18T03:58:03.533Z,102349.38
2022-12-18T04:00:46.450Z,102353.88
2022-12-18T04:03:17.734Z,102365.34
2022-12-18T04:05:54.073Z,102353.88
2022-12-18T04:08:26.666Z,102367.97
2022-12-18T04:11:05.339Z,102362.63
2022-12-18T04:13:38.194Z,102367.97
2022-12-18T04:16:19.544Z,102365.44
2022-12-18T04:18:52.305Z,102356.63
2022-12-18T04:21:23.960Z,102369.16
2022-12-18T04:23:53.493Z,102367.44
2022-12-18T04:26:25.049Z,102361.19
2022-12-18T04:29:15.209Z,102356.00
2022-12-18T04:31:47.942Z,102360.56
2022-12-18T04:34:18.689Z,102359.75
2022-12-18T04:36:53.165Z,102357.91
2022-12-18T04:39:24.059Z,102354.28
2022-12-18T04:41:57.049Z,102364.06
2022-12-18T04:44:26.799Z,102355.31
2022-12-18T04:46:59.183Z,102351.84
2022-12-18T04:49:28.853Z,102346.69
2022-12-18T04:51:58.486Z,102337.91
2022-12-18T04:54:27.981Z,102337.09
2022-12-18T04:56:57.485Z,102344.97
2022-12-18T04:59:26.984Z,102348.50
2022-12-18T05:01:59.223Z,102346.03
2022-12-18T05:04:28.857Z,102343.41
2022-12-18T05:06:58.382Z,102344.28
2022-12-18T05:09:27.938Z,102344.28
2022-12-18T05:11:57.603Z,102348.53
2022-12-18T05:14:28.627Z,102346.25
2022-12-18T05:17:01.345Z,102357.50
2022-12-18T05:19:30.996Z,102360.94
2022-12-18T05:22:00.561Z,102367.19
2022-12-18T05:24:30.370Z,102370.66
2022-12-18T05:27:00.047Z,102362.63
2022-12-18T05:29:29.899Z,102360.16
2022-12-18T05:32:02.119Z,102359.19
2022-12-18T05:34:32.165Z,102362.63
2022-12-18T05:37:01.743Z,102364.44
2022-12-18T05:39:31.692Z,102387.25
2022-12-18T05:42:01.192Z,102373.97
2022-12-18T05:44:30.743Z,102372.28
2022-12-18T05:47:02.905Z,102386.25
2022-12-18T05:49:32.532Z,102384.63
2022-12-18T05:52:02.059Z,102389.75
2022-12-18T05:54:32.070Z,102385.38
2022-12-18T05:57:02.315Z,102402.84
2022-12-18T05:59:31.879Z,102406.38
2022-12-18T06:02:04.247Z,102402.97
2022-12-18T06:04:33.972Z,102396.84
2022-12-18T06:07:09.039Z,102395.09
2022-12-18T06:09:38.601Z,102383.75
2022-12-18T06:12:09.155Z,102386.47
2022-12-18T06:14:38.957Z,102386.47
2022-12-18T06:17:11.106Z,102400.28
2022-12-18T06:19:40.658Z,102388.94
2022-12-18T06:22:10.137Z,102396.84
2022-12-18T06:24:39.678Z,102395.75
2022-12-18T06:27:09.357Z,102395.84
2022-12-18T06:29:38.943Z,102397.47
2022-12-18T06:32:11.600Z,102387.94
2022-12-18T06:34:41.111Z,102386.03
2022-12-18T06:37:10.646Z,102386.78
2022-12-18T06:39:40.157Z,102384.88
2022-12-18T06:42:09.637Z,102393.50
2022-12-18T06:44:39.198Z,102396.31
2022-12-18T06:47:11.497Z,102398.72
2022-12-18T06:49:41.074Z,102403.97
2022-12-18T06:52:10.541Z,102409.16
2022-12-18T06:54:40.087Z,102400.53
2022-12-18T06:57:09.577Z,102403.16
2022-12-18T06:59:39.043Z,102404.94
2022-12-18T07:02:15.565Z,102407.66
2022-12-18T07:04:45.319Z,102412.75
2022-12-18T07:07:14.888Z,102419.84
2022-12-18T07:09:44.361Z,102421.75
2022-12-18T07:12:13.856Z,102412.97
2022-12-18T07:14:43.318Z,102423.44
2022-12-18T07:17:15.410Z,102425.25
2022-12-18T07:19:44.990Z,102423.53
2022-12-18T07:22:14.507Z,102440.28
2022-12-18T07:24:44.053Z,102439.38
2022-12-18T07:27:13.614Z,102442.09
2022-12-18T07:29:43.111Z,102439.41
2022-12-18T07:32:15.212Z,102442.88
2022-12-18T07:34:44.935Z,102435.00
2022-12-18T07:37:14.418Z,102440.28
2022-12-18T07:39:44.369Z,102451.59
2022-12-18T07:42:26.372Z,102449.78
2022-12-18T07:44:56.514Z,102455.81
2022-12-18T07:47:29.162Z,102465.44
2022-12-18T07:50:00.886Z,102458.41
2022-12-18T07:52:30.352Z,102459.28
2022-12-18T07:55:00.414Z,102459.28
2022-12-18T08:00:20.259Z,102450.41
2022-12-18T08:02:53.617Z,102440.41
2022-12-18T08:05:23.745Z,102435.25
2022-12-18T08:07:53.370Z,102438.88
2022-12-18T08:10:24.042Z,102434.41
2022-12-18T08:12:54.391Z,102434.25
2022-12-18T08:15:23.866Z,102436.97
2022-12-18T08:17:55.974Z,102430.81
2022-12-18T08:20:25.520Z,102433.41
2022-12-18T08:22:55.210Z,102420.94
2022-12-18T08:25:24.798Z,102424.44
2022-12-18T08:27:54.844Z,102428.38
2022-12-18T08:30:24.491Z,102438.13
2022-12-18T08:32:58.006Z,102422.19
2022-12-18T08:35:32.812Z,102421.16
2022-12-18T08:38:05.490Z,102412.28
2022-12-18T08:40:34.994Z,102407.72
2022-12-18T08:43:16.935Z,102394.47
2022-12-18T08:45:46.609Z,102405.84
2022-12-18T08:48:22.160Z,102411.72
2022-12-18T08:50:58.085Z,102402.88
2022-12-18T08:53:36.637Z,102405.41
2022-12-18T08:56:06.787Z,102408.84
2022-12-18T08:58:36.336Z,102401.59
2022-12-18T09:01:06.360Z,102402.38
2022-12-18T09:03:39.647Z,102402.06
2022-12-18T09:06:10.378Z,102402.88
2022-12-18T09:08:40.552Z,102405.31
2022-12-18T09:11:16.729Z,102403.34
2022-12-18T09:13:46.290Z,102399.59
2022-12-18T09:16:15.930Z,102398.44
2022-12-18T09:18:48.148Z,102387.78
2022-12-18T09:21:19.725Z,102384.91
2022-12-18T09:23:53.238Z,102385.59
2022-12-18T09:26:23.092Z,102396.00
2022-12-18T09:28:52.652Z,102387.03
2022-12-18T09:31:24.274Z,102381.50
2022-12-18T09:33:58.559Z,102384.91
2022-12-18T09:36:28.154Z,102385.47
2022-12-18T09:38:57.884Z,102384.50
2022-12-18T09:41:41.945Z,102390.91
2022-12-18T09:44:21.055Z,102398.63
2022-12-18T09:46:56.153Z,102395.38
2022-12-18T09:49:33.947Z,102390.53
2022-12-18T09:52:08.490Z,102397.13
2022-12-18T09:54:43.021Z,102406.03
2022-12-18T09:57:17.095Z,102417.94
2022-12-18T09:59:50.875Z,102413.72
2022-12-18T10:02:22.728Z,102403.56
2022-12-18T10:05:06.720Z,102403.09
2022-12-18T10:07:46.578Z,102397.78
2022-12-18T10:10:26.391Z,102407.91
2022-12-18T10:13:04.755Z,102406.47
2022-12-18T10:15:40.501Z,102409.44
2022-12-18T10:18:26.409Z,102414.53
2022-12-18T10:21:04.149Z,102418.09
2022-12-18T10:23:47.956Z,102415.69
2022-12-18T10:26:18.184Z,102415.75
2022-12-18T10:28:48.609Z,102401.97
2022-12-18T10:31:20.681Z,102398.06
2022-12-18T10:33:53.273Z,102396.44
2022-12-18T10:36:27.337Z,102393.66
2022-12-18T10:38:56.831Z,102393.72
2022-12-18T10:41:31.892Z,102391.28
2022-12-18T10:44:18.392Z,102395.63
2022-12-18T10:46:49.401Z,102399.56
2022-12-18T10:49:25.605Z,102393.72
2022-12-18T10:52:10.222Z,102388.13
2022-12-18T10:54:40.118Z,102392.22
2022-12-18T10:57:21.247Z,102387.66
2022-12-18T10:59:56.187Z,102384.66
2022-12-18T11:02:31.921Z,102370.91
2022-12-18T11:05:01.644Z,102360.28
2022-12-18T11:07:51.945Z,102347.63
2022-12-18T11:10:22.843Z,102343.00
2022-12-18T11:12:52.589Z,102331.53
2022-12-18T11:15:24.990Z,102350.94
2022-12-18T11:17:55.899Z,102356.59
2022-12-18T11:20:34.273Z,102355.13
2022-12-18T11:23:08.838Z,102362.56
2022-12-18T11:25:39.304Z,102364.75
2022-12-18T11:28:28.756Z,102364.13
2022-12-18T11:31:16.068Z,102354.25
2022-12-18T11:34:19.666Z,102359.22
2022-12-18T11:36:45.707Z,102348.78
2022-12-18T11:39:24.363Z,102354.38
2022-12-18T11:42:13.611Z,102338.19
2022-12-18T11:44:49.720Z,102343.91
2022-12-18T11:47:32.294Z,102332.16
2022-12-18T11:50:04.806Z,102322.97
2022-12-18T11:52:41.718Z,102313.59
2022-12-18T11:55:18.062Z,102299.59
2022-12-18T11:57:58.871Z,102292.00
2022-12-18T12:00:28.756Z,102287.00
2022-12-18T12:03:27.924Z,102282.66
2022-12-18T12:06:09.533Z,102277.31
2022-12-18T12:08:51.250Z,102277.06
2022-12-18T12:11:35.295Z,102267.06
2022-12-18T12:14:27.419Z,102265.66
2022-12-18T12:17:02.654Z,102267.53
2022-12-18T12:19:43.831Z,102253.13
2022-12-18T12:22:20.981Z,102253.47
2022-12-18T12:25:05.529Z,102247.91
2022-12-18T12:27:46.956Z,102243.38
2022-12-18T12:30:23.516Z,102254.06
2022-12-18T12:33:09.457Z,102255.38
2022-12-18T12:35:51.317Z,102263.81
2022-12-18T12:38:25.285Z,102246.47
2022-12-18T12:41:03.056Z,102245.44
2022-12-18T12:43:47.697Z,102247.84
2022-12-18T12:46:22.751Z,102243.22
2022-12-18T12:48:56.590Z,102239.78
2022-12-18T12:51:29.857Z,102228.28
2022-12-18T12:54:01.810Z,102226.38
2022-12-18T12:56:36.587Z,102223.72
2022-12-18T12:59:20.072Z,102230.75
2022-12-18T13:01:59.015Z,102230.53
2022-12-18T13:04:39.908Z,102223.66
2022-12-18T13:07:18.358Z,102220.31
2022-12-18T13:10:17.767Z,102211.38
2022-12-18T13:13:09.066Z,102203.88
2022-12-18T13:15:47.038Z,102205.91
2022-12-18T13:18:23.677Z,102208.84
2022-12-18T13:21:01.179Z,102210.13
2022-12-18T13:23:37.452Z,102220.94
2022-12-18T13:26:36.865Z,102234.38
2022-12-18T13:29:07.830Z,102230.84
2022-12-18T13:32:15.820Z,102230.38
2022-12-18T13:34:51.856Z,102226.06
2022-12-18T13:37:47.289Z,102219.72
2022-12-18T13:41:01.822Z,102231.34
2022-12-18T13:43:44.441Z,102220.31
2022-12-18T13:46:26.608Z,102224.84
2022-12-18T13:49:00.767Z,102218.63
2022-12-18T13:51:36.611Z,102210.16
2022-12-18T13:54:19.648Z,102204.25
2022-12-18T13:56:51.642Z,102199.97
2022-12-18T13:59:24.842Z,102202.31
2022-12-18T14:01:58.491Z,102197.59
2022-12-18T14:04:31.121Z,102190.28
2022-12-18T14:07:08.160Z,102191.44
2022-12-18T14:09:40.867Z,102183.22
2022-12-18T14:12:30.756Z,102181.81
2022-12-18T14:15:00.452Z,102174.03
2022-12-18T14:17:30.640Z,102169.59
2022-12-18T14:20:01.280Z,102168.97
2022-12-18T14:22:34.697Z,102167.81
2022-12-18T14:25:19.922Z,102157.50
2022-12-18T14:27:51.449Z,102154.91
2022-12-18T14:30:29.227Z,102151.63
2022-12-18T14:33:06.865Z,102151.97
2022-12-18T14:35:38.679Z,102155.91
2022-12-18T14:38:24.279Z,102140.22
2022-12-18T14:40:59.038Z,102135.34
2022-12-18T14:43:29.277Z,102141.44
2022-12-18T14:46:00.197Z,102133.13
2022-12-18T14:48:39.714Z,102142.03
2022-12-18T14:51:18.723Z,102145.19
2022-12-18T14:53:55.006Z,102132.50
2022-12-18T14:56:27.344Z,102134.53
2022-12-18T14:58:59.260Z,102129.16
2022-12-18T15:01:35.286Z,102128.38
2022-12-18T15:04:05.982Z,102134.03
2022-12-18T15:06:38.143Z,102128.13
2022-12-18T15:09:25.910Z,102124.94
2022-12-18T15:11:59.944Z,102129.72
2022-12-18T15:14:38.791Z,102126.66
2022-12-18T15:17:18.171Z,102115.00
2022-12-18T15:19:49.133Z,102117.00
2022-12-18T15:22:25.151Z,102115.53
2022-12-18T15:24:58.695Z,102114.69
2022-12-18T15:27:32.084Z,102111.44
2022-12-18T15:30:20.667Z,102105.09
2022-12-18T15:32:50.916Z,102101.38
2022-12-18T15:35:22.999Z,102102.00
2022-12-18T15:37:53.397Z,102107.63
2022-12-18T15:40:27.264Z,102107.06
2022-12-18T15:43:11.428Z,102091.66
2022-12-18T15:45:41.046Z,102089.41
2022-12-18T15:48:24.794Z,102091.84
2022-12-18T15:50:57.744Z,102085.50
2022-12-18T15:53:28.173Z,102076.88
2022-12-18T15:56:13.900Z,102074.94
2022-12-18T15:58:43.900Z,102076.13
2022-12-18T16:01:15.096Z,102057.59
2022-12-18T16:03:45.409Z,102065.41
2022-12-18T16:06:15.696Z,102068.69
2022-12-18T16:08:45.306Z,102068.84
2022-12-18T16:11:39.032Z,102064.84
2022-12-18T16:14:10.470Z,102052.69
2022-12-18T16:16:39.951Z,102058.09
2022-12-18T16:19:09.536Z,102054.81
2022-12-18T16:21:39.213Z,102054.41
2022-12-18T16:24:15.124Z,102040.25
2022-12-18T16:26:47.542Z,102037.06
2022-12-18T16:29:17.577Z,102040.03
2022-12-18T16:31:47.632Z,102035.19
2022-12-18T16:34:25.006Z,102028.47
2022-12-18T16:37:04.916Z,102028.34
2022-12-18T16:39:35.818Z,102015.25
2022-12-18T16:42:10.314Z,102013.38
2022-12-18T16:44:39.916Z,102021.91
2022-12-18T16:47:10.272Z,102018.75
2022-12-18T16:49:45.903Z,102015.34
2022-12-18T16:52:16.339Z,102007.31
2022-12-18T16:54:47.718Z,102016.53
2022-12-18T16:57:25.182Z,102006.59
2022-12-18T16:59:57.724Z,102002.97
2022-12-18T17:02:31.361Z,101993.81
2022-12-18T17:05:02.491Z,101997.72
2022-12-18T17:07:32.237Z,101985.59
2022-12-18T17:10:01.801Z,101973.84
2022-12-18T17:12:33.962Z,101974.13
2022-12-18T17:15:03.464Z,101973.25
2022-12-18T17:17:33.052Z,101976.50
2022-12-18T17:20:03.050Z,101970.97
2022-12-18T17:22:35.118Z,101976.94
2022-12-18T17:25:04.759Z,101969.41
2022-12-18T17:27:36.908Z,101978.91
2022-12-18T17:30:07.381Z,101974.63
2022-12-18T17:32:36.953Z,101977.13
2022-12-18T17:35:07.662Z,101973.09
2022-12-18T17:37:38.264Z,101974.75
2022-12-18T17:40:09.475Z,101963.28
2022-12-18T17:42:41.598Z,101972.88
2022-12-18T17:45:12.378Z,101970.06
2022-12-18T17:47:42.291Z,101973.22
2022-12-18T17:50:12.552Z,101965.13
2022-12-18T17:52:42.171Z,101962.06
2022-12-18T17:55:12.710Z,101962.78
2022-12-18T17:57:44.887Z,101963.50
2022-12-18T18:00:15.737Z,101964.84
2022-12-18T18:02:45.521Z,101963.75
2022-12-18T18:05:15.744Z,101962.50
2022-12-18T18:07:47.532Z,101964.47
2022-12-18T18:10:17.105Z,101964.56
2022-12-18T18:13:01.702Z,101951.78
2022-12-18T18:15:31.291Z,101951.00
2022-12-18T18:18:00.846Z,101952.94
2022-12-18T18:20:32.390Z,101933.16
2022-12-18T18:23:02.052Z,101923.19
2022-12-18T18:25:31.801Z,101914.66
2022-12-18T18:28:03.994Z,101909.06
2022-12-18T18:30:33.639Z,101904.47
2022-12-18T18:33:05.515Z,101903.59
2022-12-18T18:35:53.727Z,101903.38
2022-12-18T18:38:23.928Z,101898.22
2022-12-18T18:41:01.116Z,101899.16
2022-12-18T18:43:34.105Z,101902.28
2022-12-18T18:46:05.928Z,101893.47
2022-12-18T18:48:41.662Z,101884.25
2022-12-18T18:51:20.159Z,101885.41
2022-12-18T18:53:53.219Z,101882.97
2022-12-18T18:59:16.603Z,101868.56
2022-12-18T19:01:46.698Z,101864.09
2022-12-18T19:04:16.492Z,101867.59
2022-12-18T19:06:47.741Z,101864.41
2022-12-18T19:09:18.490Z,101874.84
2022-12-18T19:12:00.755Z,101870.94
2022-12-18T19:14:33.162Z,101874.34
2022-12-18T19:17:02.784Z,101869.38
2022-12-18T19:19:33.956Z,101863.03
2022-12-18T19:22:03.862Z,101856.38
2022-12-18T19:24:34.796Z,101853.03
2022-12-18T19:27:04.350Z,101860.75
2022-12-18T19:29:36.837Z,101860.09
2022-12-18T19:32:10.465Z,101863.66
2022-12-18T19:34:42.068Z,101848.75
2022-12-18T19:37:13.620Z,101832.97
2022-12-18T19:39:43.327Z,101839.09
2022-12-18T19:42:12.907Z,101838.44
2022-12-18T19:44:45.575Z,101841.34
2022-12-18T19:47:15.086Z,101842.72
2022-12-18T19:49:44.656Z,101854.09
2022-12-18T19:52:16.180Z,101850.53
2022-12-18T19:54:47.406Z,101854.88
2022-12-18T19:57:16.910Z,101854.44
2022-12-18T19:59:49.040Z,101851.69
2022-12-18T20:02:19.232Z,101848.03
2022-12-18T20:04:48.998Z,101834.94
2022-12-18T20:07:18.485Z,101840.81
2022-12-18T20:09:48.004Z,101837.59
2022-12-18T20:12:17.712Z,101828.31
2022-12-18T20:14:50.022Z,101820.16
2022-12-18T20:17:19.583Z,101806.81
2022-12-18T20:19:49.487Z,101810.41
2022-12-18T20:22:19.004Z,101797.41
2022-12-18T20:24:48.559Z,101778.00
2022-12-18T20:27:19.636Z,101762.50
2022-12-18T20:29:51.927Z,101750.91
2022-12-18T20:32:21.517Z,101752.81
2022-12-18T20:34:51.035Z,101759.94
2022-12-18T20:37:21.707Z,101773.72
2022-12-18T20:39:53.143Z,101794.38
2022-12-18T20:42:23.649Z,101802.44
2022-12-18T20:44:55.760Z,101803.47
2022-12-18T20:47:25.371Z,101779.81
2022-12-18T20:49:55.031Z,101788.06
2022-12-18T20:52:24.935Z,101776.91
2022-12-18T20:54:54.474Z,101775.19
2022-12-18T20:57:26.691Z,101778.88
2022-12-18T20:59:58.765Z,101776.66
2022-12-18T21:02:28.464Z,101781.00
2022-12-18T21:04:58.083Z,101770.19
2022-12-18T21:07:27.593Z,101776.38
2022-12-18T21:09:57.096Z,101789.59
2022-12-18T21:12:42.834Z,101788.38
2022-12-18T21:15:28.362Z,101786.28
2022-12-18T21:17:58.356Z,101787.31
2022-12-18T21:20:27.920Z,101780.56
2022-12-18T21:23:02.800Z,101781.50
2022-12-18T21:25:47.560Z,101778.13
2022-12-18T21:28:20.857Z,101768.81
2022-12-18T21:30:53.185Z,101775.94
2022-12-18T21:33:22.691Z,101790.56
2022-12-18T21:35:52.236Z,101799.94
2022-12-18T21:38:21.764Z,101805.00
2022-12-18T21:40:51.765Z,101822.13
2022-12-18T21:43:33.728Z,101814.44
2022-12-18T21:46:05.876Z,101821.59
2022-12-18T21:48:38.452Z,101821.47
2022-12-18T21:51:08.260Z,101795.13
2022-12-18T21:53:37.824Z,101783.22
2022-12-18T21:56:07.970Z,101778.50
2022-12-18T21:58:37.479Z,101762.19
2022-12-18T22:01:09.748Z,101742.06
2022-12-18T22:03:39.447Z,101741.41
2022-12-18T22:06:09.888Z,101737.78
2022-12-18T22:08:42.084Z,101741.41
2022-12-18T22:11:15.171Z,101753.72
2022-12-18T22:13:46.875Z,101758.09
2022-12-18T22:16:19.127Z,101755.50
2022-12-18T22:18:48.645Z,101736.84
2022-12-18T22:21:29.386Z,101742.34
2022-12-18T22:24:00.716Z,101730.31
2022-12-18T22:26:36.405Z,101719.78
2022-12-18T22:29:21.612Z,101741.63
2022-12-18T22:31:53.928Z,101729.00
2022-12-18T22:34:23.553Z,101737.34
2022-12-18T22:36:53.505Z,101746.25
2022-12-18T22:39:25.958Z,101741.88
2022-12-18T22:41:58.583Z,101736.38
2022-12-18T22:44:28.463Z,101732.03
2022-12-18T22:47:06.174Z,101715.22
2022-12-18T22:49:36.804Z,101718.56
2022-12-18T22:52:07.033Z,101717.78
2022-12-18T22:54:36.802Z,101714.94
2022-12-18T22:57:06.547Z,101708.88
2022-12-18T22:59:36.838Z,101698.66
2022-12-18T23:02:09.050Z,101687.34
2022-12-18T23:04:38.833Z,101687.16
2022-12-18T23:07:09.203Z,101689.72
2022-12-18T23:09:40.845Z,101669.97
2022-12-18T23:12:11.003Z,101677.09
2022-12-18T23:14:40.634Z,101679.88
2022-12-18T23:17:12.849Z,101667.22
2022-12-18T23:19:48.551Z,101669.59
2022-12-18T23:22:18.697Z,101673.38
2022-12-18T23:24:49.022Z,101688.59
2022-12-18T23:27:18.561Z,101693.91
2022-12-18T23:29:48.039Z,101686.13
2022-12-18T23:32:21.379Z,101685.19
2022-12-18T23:34:50.872Z,101678.03
2022-12-18T23:37:49.809Z,101668.63
2022-12-18T23:40:13.470Z,101673.94
2022-12-18T23:42:42.980Z,101663.25
2022-12-18T23:45:16.549Z,101668.63
2022-12-18T23:47:51.263Z,101662.38
2022-12-18T23:50:24.025Z,101659.53
2022-12-18T23:53:02.094Z,101654.91
2022-12-18T23:55:35.433Z,101646.81
2022-12-18T23:58:04.986Z,101640.25
